Details From KTXK - Texarkana Rgnl Webb Fld
To KFLP - Marion Co Rgnl
Flight Number -
Tags Decoded
Created
Modified
Stats Distance 231 nm / 428 km
Max Altitude 0 ft / 0 m
Waypoints 6
Social Downloads 2
Likes 0
Share VATSIM

Download

Looking for another format? Having issues loading an existing format? Contact us
Advertisement - Login to hide

Notes

Decoded

Route

KTXK DEENS PGO FSM HRO MUVUE

ID Type Via Altitude Latitude Longitude Leg Dist Tot Dist Heading (true) Name
O KTXK APT - 0 ft / 0 m 33.46010˚ -93.99366˚ - 0 nm - -
DEENS FIX - 0 ft / 0 m 34.00743˚ -94.29794˚ 36 nm 36 nm 335° / 335° -
PGO VOR - 0 ft / 0 m 34.68044˚ -94.60900˚ 43 nm 79 nm 339° / 339° RICH MOUNTAIN VORTAC
FSM VOR - 0 ft / 0 m 35.38842˚ -94.27153˚ 45 nm 125 nm 21° / 21° FORT SMITH VORTAC
HRO VOR - 0 ft / 0 m 36.31831˚ -93.21328˚ 75 nm 201 nm 42° / 43° HARRISON VOR-DME
O MUVUE FIX - 0 ft / 0 m 36.26578˚ -92.59650˚ 30 nm 231 nm 96° / 96° -

Altitude Profile

Advertisement - Login to hide

Weather


0- 5 10 15 20 25 30 35+ Temperature / ° C

Clouds and Precipitation
Forecast for 2017-12-17 06:00 UTC. Updated an hour ago

Ground ~20,000 ft ~40,000 ft Winds

KTXK

Details ICAO KTXK (TXK)
Name TEXARKANA RGNL WEBB FLD
Region United States
Timezone America/Chicago (UTC-6.0)
Stats Elevation 390 ft / 119 m (AMSL)
Location 33.453857° -93.990669°
Runways 2
Magnetic Variation 1.499° E

METAR

KTXK 170153Z 14004KT 8SM -RA FEW070 OVC100 08/07 A3011 RMK AO2 SLP195 P0004 T00780067

Decode

TAF

TAF KTXK 162343Z 1700/1724 16006KT P6SM VCSH SCT070 OVC080 FM170200 15006KT P6SM -RA OVC050 FM170400 14007KT 4SM SHRA BR SCT020 OVC035 TEMPO 1704/1706 3SM SHRA BR OVC020 FM170600 13006KT 4SM SHRA BR SCT007 OVC015 FM170800 13005KT 4SM -RA BR OVC007 FM171000 13004KT 6SM BR OVC007 FM171500 17004KT P6SM OVC007

Decode

Departure Runways

ID Width Length Bearing (true) Bearing (mag) Surface Threshold Offset Overrun Length
04 144 ft / 44 m 6,605 ft / 2,013 m 44.84° 43.34° Asphalt 0 ft / 0 m 0 ft / 0 m
13 100 ft / 30 m 5,202 ft / 1,586 m 135.13° 133.63° Asphalt 640 ft / 195 m 0 ft / 0 m
22 144 ft / 44 m 6,605 ft / 2,013 m 224.85° 223.35° Asphalt 0 ft / 0 m 0 ft / 0 m
31 100 ft / 30 m 5,202 ft / 1,586 m 315.13° 313.63° Asphalt 0 ft / 0 m 0 ft / 0 m

KFLP

Details ICAO KFLP
Name MARION CO RGNL
Region United States
Timezone America/Chicago (UTC-6.0)
Stats Elevation 719 ft / 219 m (AMSL)
Location 36.290895° -92.590253°
Runways 1
Magnetic Variation 0.400° E

METAR

KFLP 170156Z AUTO 16005KT 10SM CLR 10/M02 A3009 RMK AO2 SLP194 T01001017

Decode

TAF

Not found

Destination Runways

ID Width Length Bearing (true) Bearing (mag) Surface Threshold Offset Overrun Length
04 75 ft / 23 m 4,998 ft / 1,524 m 51.08° 50.68° Asphalt 900 ft / 274 m 200 ft / 61 m
22 75 ft / 23 m 4,998 ft / 1,524 m 231.09° 230.69° Asphalt 0 ft / 0 m 350 ft / 107 m